createdAt,value
2018-12-04T00:00:45.221Z,22.20
2018-12-04T00:03:41.182Z,22.10
2018-12-04T00:06:37.146Z,22.10
2018-12-04T00:09:33.328Z,22.10
2018-12-04T00:12:29.355Z,22.10
2018-12-04T00:15:25.696Z,22.00
2018-12-04T00:18:22.310Z,22.00
2018-12-04T00:21:19.004Z,22.00
2018-12-04T00:24:15.383Z,22.00
2018-12-04T00:27:11.937Z,22.00
2018-12-04T00:30:08.441Z,21.90
2018-12-04T00:33:04.707Z,21.90
2018-12-04T00:36:03.191Z,21.90
2018-12-04T00:39:00.108Z,21.90
2018-12-04T00:41:56.993Z,21.90
2018-12-04T00:44:56.670Z,21.80
2018-12-04T00:47:53.278Z,21.80
2018-12-04T00:50:49.927Z,21.80
2018-12-04T00:53:46.119Z,21.80
2018-12-04T00:56:43.192Z,21.80
2018-12-04T00:59:39.203Z,21.70
2018-12-04T01:02:36.051Z,21.70
2018-12-04T01:05:32.180Z,21.70
2018-12-04T01:08:31.030Z,21.70
2018-12-04T01:11:27.054Z,21.70
2018-12-04T01:14:24.029Z,21.70
2018-12-04T01:17:20.546Z,21.80
2018-12-04T01:20:17.421Z,21.80
2018-12-04T01:23:14.395Z,21.90
2018-12-04T01:26:10.555Z,21.90
2018-12-04T01:29:07.674Z,22.00
2018-12-04T01:32:07.389Z,22.00
2018-12-04T01:35:03.793Z,22.00
2018-12-04T01:38:00.199Z,22.10
2018-12-04T01:40:56.460Z,22.00
2018-12-04T01:43:52.587Z,22.00
2018-12-04T01:46:49.089Z,22.00
2018-12-04T01:49:45.136Z,22.00
2018-12-04T01:52:41.629Z,22.00
2018-12-04T01:55:37.503Z,22.00
2018-12-04T01:58:33.791Z,22.00
2018-12-04T02:01:30.329Z,21.90
2018-12-04T02:04:26.481Z,21.90
2018-12-04T02:07:22.546Z,21.90
2018-12-04T02:10:21.571Z,21.90
2018-12-04T02:13:18.005Z,21.90
2018-12-04T02:16:15.903Z,21.90
2018-12-04T02:19:12.527Z,21.90
2018-12-04T02:22:09.208Z,21.90
2018-12-04T02:25:05.591Z,21.90
2018-12-04T02:28:02.118Z,21.90
2018-12-04T02:30:58.850Z,21.90
2018-12-04T02:33:54.726Z,21.90
2018-12-04T02:36:50.889Z,21.90
2018-12-04T02:39:46.660Z,22.00
2018-12-04T02:42:43.439Z,22.00
2018-12-04T02:45:39.486Z,21.90
2018-12-04T02:48:35.899Z,22.00
2018-12-04T02:51:32.310Z,22.00
2018-12-04T02:54:28.387Z,22.00
2018-12-04T02:57:24.858Z,22.00
2018-12-04T03:00:21.653Z,22.00
2018-12-04T03:03:18.181Z,22.10
2018-12-04T03:06:14.437Z,22.10
2018-12-04T03:09:12.054Z,22.10
2018-12-04T03:12:09.078Z,22.10
2018-12-04T03:15:05.621Z,22.10
2018-12-04T03:18:01.894Z,22.10
2018-12-04T03:21:01.731Z,22.20
2018-12-04T03:23:58.492Z,22.20
2018-12-04T03:26:55.349Z,22.30
2018-12-04T03:29:52.421Z,22.30
2018-12-04T03:32:48.991Z,22.40
2018-12-04T03:35:45.127Z,22.50
2018-12-04T03:38:41.789Z,22.60
2018-12-04T03:41:37.799Z,22.60
2018-12-04T03:44:34.160Z,22.70
2018-12-04T03:47:32.836Z,22.70
2018-12-04T03:50:28.728Z,22.70
2018-12-04T03:53:24.791Z,22.80
2018-12-04T03:56:21.122Z,22.80
2018-12-04T03:59:17.021Z,22.70
2018-12-04T04:02:13.816Z,22.80
2018-12-04T04:05:10.401Z,22.80
2018-12-04T04:08:06.964Z,22.80
2018-12-04T04:11:03.798Z,22.80
2018-12-04T04:14:00.114Z,22.80
2018-12-04T04:16:56.893Z,22.80
2018-12-04T04:19:53.308Z,22.80
2018-12-04T04:22:49.672Z,22.80
2018-12-04T04:25:46.296Z,22.80
2018-12-04T04:28:43.479Z,22.90
2018-12-04T04:31:40.272Z,22.90
2018-12-04T04:34:37.184Z,23.00
2018-12-04T04:37:33.783Z,23.00
2018-12-04T04:40:31.054Z,23.00
2018-12-04T04:43:27.266Z,23.10
2018-12-04T04:46:23.651Z,23.20
2018-12-04T04:49:19.827Z,23.20
2018-12-04T04:52:19.142Z,23.20
2018-12-04T04:55:15.806Z,23.30
2018-12-04T04:58:13.402Z,23.30
2018-12-04T05:01:22.021Z,23.40
2018-12-04T05:04:10.884Z,23.40
2018-12-04T05:07:07.254Z,23.50
2018-12-04T05:10:05.034Z,23.50
2018-12-04T05:16:53.922Z,23.60
2018-12-04T05:19:54.928Z,23.70
2018-12-04T05:23:08.685Z,23.80
2018-12-04T05:26:15.260Z,23.80
2018-12-04T05:29:23.201Z,23.90
2018-12-04T05:32:21.985Z,23.90
2018-12-04T05:35:16.927Z,24.00
2018-12-04T05:41:34.744Z,24.20
2018-12-04T05:44:32.301Z,24.30
2018-12-04T05:47:29.221Z,24.30
2018-12-04T05:50:29.223Z,24.40
2018-12-04T05:53:42.046Z,24.40
2018-12-04T05:56:39.362Z,24.50
2018-12-04T05:59:42.671Z,24.50
2018-12-04T06:03:04.258Z,24.60
2018-12-04T06:05:53.968Z,24.60
2018-12-04T06:08:57.028Z,24.60
2018-12-04T06:11:51.643Z,24.70
2018-12-04T06:14:47.939Z,24.70
2018-12-04T06:17:46.785Z,24.70
2018-12-04T06:20:46.849Z,24.70
2018-12-04T06:23:52.468Z,24.70
2018-12-04T06:26:50.312Z,24.70
2018-12-04T06:29:55.010Z,24.70
2018-12-04T06:40:18.759Z,24.80
2018-12-04T06:43:19.015Z,24.80
2018-12-04T06:46:16.971Z,24.90
2018-12-04T06:49:17.475Z,24.90
2018-12-04T06:52:14.155Z,25.00
2018-12-04T06:55:19.445Z,25.00
2018-12-04T06:58:20.649Z,25.10
2018-12-04T07:01:17.447Z,25.20
2018-12-04T07:05:00.014Z,25.20
2018-12-04T07:08:02.363Z,25.30
2018-12-04T07:11:02.509Z,25.50
2018-12-04T07:14:05.341Z,25.60
2018-12-04T07:20:03.548Z,25.80
2018-12-04T07:23:00.443Z,25.90
2018-12-04T07:25:57.426Z,26.00
2018-12-04T07:28:53.785Z,26.10
2018-12-04T07:31:50.941Z,26.10
2018-12-04T07:34:47.286Z,26.20
2018-12-04T07:38:04.451Z,26.20
2018-12-04T07:41:04.234Z,26.20
2018-12-04T07:44:27.832Z,26.20
2018-12-04T07:47:37.502Z,26.20
2018-12-04T07:50:47.577Z,26.20
2018-12-04T07:54:11.414Z,26.20
2018-12-04T08:01:05.902Z,26.20
2018-12-04T08:04:19.212Z,26.30
2018-12-04T08:07:08.586Z,26.30
2018-12-04T08:10:13.136Z,26.30
2018-12-04T08:13:20.007Z,26.30
2018-12-04T08:16:23.289Z,26.40
2018-12-04T08:19:20.362Z,26.40
2018-12-04T08:22:22.263Z,26.30
2018-12-04T08:25:30.649Z,26.30
2018-12-04T08:28:28.055Z,26.30
2018-12-04T08:31:25.663Z,26.30
2018-12-04T08:34:21.850Z,26.30
2018-12-04T08:37:18.320Z,26.30
2018-12-04T08:40:15.550Z,26.30
2018-12-04T08:43:11.687Z,26.30
2018-12-04T08:46:08.011Z,26.40
2018-12-04T08:49:04.510Z,26.40
2018-12-04T08:52:00.830Z,26.40
2018-12-04T08:54:57.246Z,26.40
2018-12-04T08:57:56.190Z,26.40
2018-12-04T09:00:54.822Z,26.40
2018-12-04T09:03:51.071Z,26.40
2018-12-04T09:06:50.525Z,26.40
2018-12-04T09:09:46.889Z,26.50
2018-12-04T09:12:43.443Z,26.50
2018-12-04T09:15:43.778Z,26.50
2018-12-04T09:18:43.702Z,26.60
2018-12-04T09:21:36.107Z,26.60
2018-12-04T09:24:35.274Z,26.60
2018-12-04T09:27:31.528Z,26.60
2018-12-04T09:30:28.179Z,26.70
2018-12-04T09:33:24.941Z,26.70
2018-12-04T09:36:22.874Z,26.70
2018-12-04T09:39:20.613Z,26.80
2018-12-04T09:42:17.303Z,26.80
2018-12-04T09:45:17.914Z,26.80
2018-12-04T09:48:15.716Z,26.80
2018-12-04T09:51:16.484Z,26.90
2018-12-04T09:54:16.586Z,26.90
2018-12-04T09:57:10.739Z,26.90
2018-12-04T10:00:08.246Z,26.90
2018-12-04T10:03:11.691Z,26.90
2018-12-04T10:06:11.661Z,26.90
2018-12-04T10:12:25.134Z,26.90
2018-12-04T10:15:23.688Z,26.90
2018-12-04T10:18:20.162Z,26.80
2018-12-04T10:21:16.194Z,26.80
2018-12-04T10:24:13.016Z,26.80
2018-12-04T10:27:14.697Z,26.80
2018-12-04T10:30:16.275Z,26.80
2018-12-04T10:33:12.508Z,26.80
2018-12-04T10:36:09.706Z,26.80
2018-12-04T10:39:06.965Z,26.80
2018-12-04T10:42:06.106Z,26.80
2018-12-04T10:45:04.727Z,26.70
2018-12-04T10:48:01.369Z,26.70
2018-12-04T10:50:58.014Z,26.70
2018-12-04T10:53:54.887Z,26.70
2018-12-04T10:56:51.474Z,26.80
2018-12-04T10:59:51.597Z,26.80
2018-12-04T11:02:53.689Z,26.80
2018-12-04T11:05:50.900Z,26.70
2018-12-04T11:08:50.977Z,26.80
2018-12-04T11:19:24.879Z,26.70
2018-12-04T11:22:23.168Z,26.70
2018-12-04T11:25:19.951Z,26.60
2018-12-04T11:28:16.484Z,26.60
2018-12-04T11:31:13.438Z,26.60
2018-12-04T11:34:09.950Z,26.60
2018-12-04T11:37:06.680Z,26.60
2018-12-04T11:40:03.290Z,26.50
2018-12-04T11:42:59.715Z,26.50
2018-12-04T11:45:55.979Z,26.50
2018-12-04T11:48:52.631Z,26.50
2018-12-04T11:51:48.796Z,26.40
2018-12-04T11:54:49.146Z,26.40
2018-12-04T11:57:45.199Z,26.40
2018-12-04T12:00:44.204Z,26.40
2018-12-04T12:03:50.770Z,26.30
2018-12-04T12:06:55.711Z,26.30
2018-12-04T12:10:09.939Z,26.30
2018-12-04T12:13:26.788Z,26.20
2018-12-04T12:16:24.895Z,26.20
2018-12-04T12:19:22.483Z,26.20
2018-12-04T12:22:19.940Z,26.10
2018-12-04T12:25:16.665Z,26.10
2018-12-04T12:28:13.369Z,26.10
2018-12-04T12:31:09.806Z,26.10
2018-12-04T12:34:05.880Z,26.00
2018-12-04T12:37:01.937Z,26.00
2018-12-04T12:39:59.073Z,26.00
2018-12-04T12:43:03.282Z,26.00
2018-12-04T12:45:59.911Z,26.00
2018-12-04T12:48:57.061Z,26.00
2018-12-04T12:51:53.551Z,26.00
2018-12-04T12:54:50.571Z,26.00
2018-12-04T12:57:48.604Z,25.90
2018-12-04T13:00:46.875Z,25.90
2018-12-04T13:03:45.469Z,25.90
2018-12-04T13:06:43.298Z,25.90
2018-12-04T13:09:41.290Z,25.80
2018-12-04T13:12:40.351Z,25.80
2018-12-04T13:15:38.013Z,25.80
2018-12-04T13:18:38.261Z,25.80
2018-12-04T13:21:35.545Z,25.70
2018-12-04T13:24:32.397Z,25.70
2018-12-04T13:27:29.815Z,25.60
2018-12-04T13:30:26.438Z,25.60
2018-12-04T13:33:23.275Z,25.60
2018-12-04T13:36:20.206Z,25.60
2018-12-04T13:39:17.798Z,25.50
2018-12-04T13:42:15.209Z,25.50
2018-12-04T13:45:13.062Z,25.50
2018-12-04T13:48:09.977Z,25.40
2018-12-04T13:51:06.718Z,25.40
2018-12-04T13:54:03.392Z,25.40
2018-12-04T13:57:00.629Z,25.30
2018-12-04T13:59:57.096Z,25.30
2018-12-04T14:02:53.803Z,25.30
2018-12-04T14:05:50.925Z,25.30
2018-12-04T14:08:48.284Z,25.30
2018-12-04T14:11:45.708Z,25.20
2018-12-04T14:14:44.047Z,25.20
2018-12-04T14:17:41.642Z,25.20
2018-12-04T14:20:38.522Z,25.20
2018-12-04T14:23:35.118Z,25.10
2018-12-04T14:26:32.042Z,25.10
2018-12-04T14:29:28.814Z,25.10
2018-12-04T14:32:25.839Z,25.00
2018-12-04T14:35:22.963Z,25.10
2018-12-04T14:38:19.540Z,25.00
2018-12-04T14:41:15.968Z,25.00
2018-12-04T14:44:13.039Z,25.00
2018-12-04T14:47:10.452Z,25.00
2018-12-04T14:50:07.279Z,25.00
2018-12-04T14:53:03.926Z,25.00
2018-12-04T14:56:00.855Z,24.90
2018-12-04T14:58:57.363Z,24.90
2018-12-04T15:01:57.457Z,24.90
2018-12-04T15:04:53.899Z,24.90
2018-12-04T15:07:50.593Z,24.90
2018-12-04T15:10:47.243Z,24.90
2018-12-04T15:13:43.686Z,24.90
2018-12-04T15:16:40.802Z,24.80
2018-12-04T15:19:38.912Z,24.90
2018-12-04T15:22:35.911Z,24.80
2018-12-04T15:25:33.130Z,24.80
2018-12-04T15:28:30.147Z,24.80
2018-12-04T15:31:27.555Z,24.80
2018-12-04T15:34:24.579Z,24.80
2018-12-04T15:37:22.551Z,24.70
2018-12-04T15:40:19.649Z,24.70
2018-12-04T15:43:16.460Z,24.70
2018-12-04T15:46:13.701Z,24.70
2018-12-04T15:49:10.447Z,24.70
2018-12-04T15:52:07.250Z,24.70
2018-12-04T15:55:04.538Z,24.70
2018-12-04T15:58:01.694Z,24.70
2018-12-04T16:00:59.819Z,24.70
2018-12-04T16:03:56.095Z,24.70
2018-12-04T16:06:53.118Z,24.70
2018-12-04T16:09:49.654Z,24.60
2018-12-04T16:12:47.339Z,24.60
2018-12-04T16:15:43.925Z,24.60
2018-12-04T16:18:41.598Z,24.60
2018-12-04T16:21:39.200Z,24.60
2018-12-04T16:24:38.259Z,24.60
2018-12-04T16:27:35.618Z,24.60
2018-12-04T16:30:33.177Z,24.60
2018-12-04T16:33:30.337Z,24.60
2018-12-04T16:36:31.553Z,24.60
2018-12-04T16:39:29.329Z,24.60
2018-12-04T16:42:26.758Z,24.60
2018-12-04T16:45:24.849Z,24.60
2018-12-04T16:48:22.024Z,24.60
2018-12-04T16:51:18.742Z,24.60
2018-12-04T16:54:16.339Z,24.60
2018-12-04T16:57:13.149Z,24.70
2018-12-04T17:00:11.121Z,24.70
2018-12-04T17:03:07.678Z,24.70
2018-12-04T17:06:05.086Z,24.70
2018-12-04T17:09:02.207Z,24.70
2018-12-04T17:12:00.359Z,24.70
2018-12-04T17:14:56.853Z,24.70
2018-12-04T17:17:53.536Z,24.70
2018-12-04T17:20:50.346Z,24.70
2018-12-04T17:23:51.770Z,24.70
2018-12-04T17:26:46.196Z,24.70
2018-12-04T17:29:46.275Z,24.70
2018-12-04T17:32:44.160Z,24.70
2018-12-04T17:35:41.692Z,24.70
2018-12-04T17:38:39.221Z,24.70
2018-12-04T17:41:36.147Z,24.70
2018-12-04T17:44:40.014Z,24.60
2018-12-04T17:47:31.143Z,24.60
2018-12-04T17:50:28.338Z,24.60
2018-12-04T17:53:25.548Z,24.60
2018-12-04T17:56:22.564Z,24.60
2018-12-04T17:59:19.441Z,24.60
2018-12-04T18:02:16.262Z,24.60
2018-12-04T18:05:14.370Z,24.60
2018-12-04T18:08:11.697Z,24.50
2018-12-04T18:11:09.531Z,24.50
2018-12-04T18:14:06.472Z,24.50
2018-12-04T18:17:06.355Z,24.50
2018-12-04T18:20:02.727Z,24.40
2018-12-04T18:22:59.442Z,24.40
2018-12-04T18:25:56.386Z,24.40
2018-12-04T18:28:54.658Z,24.40
2018-12-04T18:31:51.778Z,24.30
2018-12-04T18:34:48.609Z,24.30
2018-12-04T18:37:45.481Z,24.30
2018-12-04T18:40:42.578Z,24.20
2018-12-04T18:43:39.461Z,24.20
2018-12-04T18:46:36.555Z,24.20
2018-12-04T18:49:36.398Z,24.20
2018-12-04T18:52:33.767Z,24.20
2018-12-04T18:55:31.111Z,24.10
2018-12-04T18:58:28.313Z,24.10
2018-12-04T19:01:25.251Z,24.10
2018-12-04T19:04:22.251Z,24.10
2018-12-04T19:07:19.131Z,24.10
2018-12-04T19:10:16.408Z,24.10
2018-12-04T19:13:13.348Z,24.10
2018-12-04T19:16:10.620Z,24.00
2018-12-04T19:19:07.423Z,24.00
2018-12-04T19:22:04.415Z,24.00
2018-12-04T19:25:02.119Z,24.00
2018-12-04T19:28:00.480Z,24.00
2018-12-04T19:31:02.640Z,24.00
2018-12-04T19:33:54.853Z,24.00
2018-12-04T19:36:52.057Z,23.90
2018-12-04T19:39:49.911Z,23.90
2018-12-04T19:42:48.844Z,23.90
2018-12-04T19:45:46.462Z,23.90
2018-12-04T19:48:44.096Z,23.90
2018-12-04T19:51:40.919Z,23.90
2018-12-04T19:54:38.251Z,23.90
2018-12-04T19:57:35.554Z,23.90
2018-12-04T20:00:33.094Z,23.90
2018-12-04T20:03:30.479Z,23.80
2018-12-04T20:06:28.237Z,23.80
2018-12-04T20:09:25.332Z,23.80
2018-12-04T20:12:22.869Z,23.80
2018-12-04T20:15:20.510Z,23.80
2018-12-04T20:18:20.988Z,23.80
2018-12-04T20:21:18.275Z,23.80
2018-12-04T20:24:15.570Z,23.80
2018-12-04T20:27:12.859Z,23.80
2018-12-04T20:30:11.404Z,23.80
2018-12-04T20:33:09.054Z,23.70
2018-12-04T20:36:06.735Z,23.70
2018-12-04T20:39:04.756Z,23.70
2018-12-04T20:42:02.803Z,23.70
2018-12-04T20:45:00.339Z,23.70
2018-12-04T20:47:58.153Z,23.70
2018-12-04T20:50:58.297Z,23.70
2018-12-04T20:53:55.929Z,23.70
2018-12-04T20:56:53.729Z,23.70
2018-12-04T20:59:51.261Z,23.70
2018-12-04T21:02:48.587Z,23.60
2018-12-04T21:05:46.132Z,23.70
2018-12-04T21:08:43.564Z,23.60
2018-12-04T21:11:44.110Z,23.60
2018-12-04T21:14:41.945Z,23.60
2018-12-04T21:17:39.440Z,23.60
2018-12-04T21:20:37.389Z,23.60
2018-12-04T21:23:34.462Z,23.60
2018-12-04T21:26:36.824Z,23.60
2018-12-04T21:29:46.003Z,23.60
2018-12-04T21:33:00.043Z,23.70
2018-12-04T21:36:13.785Z,23.70
2018-12-04T21:39:47.058Z,23.70
2018-12-04T21:43:00.186Z,23.70
2018-12-04T21:46:14.444Z,23.70
2018-12-04T21:49:11.477Z,23.70
2018-12-04T21:52:09.523Z,23.70
2018-12-04T21:55:07.041Z,23.70
2018-12-04T21:58:07.672Z,23.70
2018-12-04T22:01:05.107Z,23.70
2018-12-04T22:04:02.488Z,23.80
2018-12-04T22:07:00.069Z,23.70
2018-12-04T22:09:57.400Z,23.70
2018-12-04T22:12:55.087Z,23.70
2018-12-04T22:15:52.909Z,23.70
2018-12-04T22:18:50.440Z,23.80
2018-12-04T22:21:53.228Z,23.70
2018-12-04T22:24:50.856Z,23.70
2018-12-04T22:27:48.509Z,23.70
2018-12-04T22:30:45.986Z,23.70
2018-12-04T22:33:43.189Z,23.70
2018-12-04T22:36:40.935Z,23.70
2018-12-04T22:39:38.906Z,23.70
2018-12-04T22:42:36.216Z,23.70
2018-12-04T22:45:33.613Z,23.60
2018-12-04T22:48:30.923Z,23.60
2018-12-04T22:51:28.174Z,23.60
2018-12-04T22:54:25.143Z,23.60
2018-12-04T22:57:22.449Z,23.60
2018-12-04T23:00:25.898Z,23.60
2018-12-04T23:03:23.555Z,23.50
2018-12-04T23:06:21.141Z,23.50
2018-12-04T23:09:19.076Z,23.50
2018-12-04T23:12:16.916Z,23.50
2018-12-04T23:15:14.154Z,23.50
2018-12-04T23:18:11.345Z,23.50
2018-12-04T23:21:09.005Z,23.40
2018-12-04T23:24:06.375Z,23.40
2018-12-04T23:27:03.748Z,23.40
2018-12-04T23:30:04.990Z,23.40
2018-12-04T23:33:02.335Z,23.40
2018-12-04T23:36:02.853Z,23.40
2018-12-04T23:39:00.539Z,23.40
2018-12-04T23:41:58.723Z,23.40
2018-12-04T23:44:56.283Z,23.40
2018-12-04T23:47:53.414Z,23.40
2018-12-04T23:50:51.452Z,23.40
2018-12-04T23:53:48.534Z,23.40
2018-12-04T23:56:48.916Z,23.40
2018-12-04T23:59:46.579Z,23.40
